Time;durP1;ratioP1;P1;durP2;ratioP2;P2;SDS_P1;SDS_P2;PMS_P1;PMS_P2;Temp;Humidity;BMP_temperature;BMP_pressure;BME280_temperature;BME280_humidity;BME280_pressure;Samples;Min_cycle;Max_cycle;Signal;HPM_P1;HPM_P2
2022/04/30 00:01:10;;;;;;;7.65;5.00;;;;;;;-147.05;100.00;58721.66;5032923;28;20439;-67
2022/04/30 00:03:38;;;;;;;9.00;5.07;;;;;;;-147.05;100.00;58721.66;5033101;28;20121;-67
2022/04/30 00:06:06;;;;;;;8.25;4.50;;;;;;;-147.05;100.00;58721.66;5032329;28;20042;-67
2022/04/30 00:08:33;;;;;;;7.63;4.68;;;;;;;-147.05;100.00;58721.66;5033184;28;20042;-66
2022/04/30 00:11:00;;;;;;;7.53;5.03;;;;;;;-147.05;100.00;58721.66;5032677;28;20128;-67
2022/04/30 00:13:27;;;;;;;8.40;4.60;;;;;;;-147.05;100.00;58721.66;5031245;28;20044;-66
2022/04/30 00:15:54;;;;;;;10.32;5.22;;;;;;;-147.05;100.00;58721.66;5032894;28;20072;-67
2022/04/30 00:18:21;;;;;;;8.48;4.68;;;;;;;5.42;100.00;58721.66;5032626;28;20045;-67
2022/04/30 00:20:49;;;;;;;12.95;5.18;;;;;;;5.38;100.00;58721.66;5032664;28;20117;-66
2022/04/30 00:23:19;;;;;;;7.80;5.35;;;;;;;-147.05;100.00;58721.66;5032800;28;20101;-67
2022/04/30 00:25:54;;;;;;;10.05;5.55;;;;;;;-147.05;100.00;58721.66;5032782;28;20583;-68
2022/04/30 00:28:25;;;;;;;9.18;5.22;;;;;;;-147.05;100.00;58721.66;5032702;28;20071;-68
2022/04/30 00:30:54;;;;;;;8.93;5.05;;;;;;;-147.05;100.00;58721.66;5032326;28;20038;-67
2022/04/30 00:33:23;;;;;;;10.48;5.47;;;;;;;-147.05;100.00;58721.66;5032052;28;20058;-68
2022/04/30 00:35:50;;;;;;;11.60;5.30;;;;;;;-147.05;100.00;58721.66;5030996;28;20539;-67
2022/04/30 00:38:17;;;;;;;11.45;5.57;;;;;;;-147.05;100.00;58721.66;5032500;28;20052;-67
2022/04/30 00:40:44;;;;;;;10.90;5.35;;;;;;;-147.05;100.00;58721.66;5031794;28;20037;-67
2022/04/30 00:43:11;;;;;;;12.85;5.70;;;;;;;-147.05;100.00;58721.66;5032533;28;20252;-68
2022/04/30 00:45:48;;;;;;;9.85;5.28;;;;;;;-147.05;100.00;58721.66;5032472;28;20050;-67
2022/04/30 00:48:15;;;;;;;11.13;5.32;;;;;;;5.13;100.00;58721.66;5032566;28;20042;-67
2022/04/30 00:50:43;;;;;;;9.88;5.13;;;;;;;-147.05;100.00;58721.66;5032363;28;20129;-68
2022/04/30 00:53:13;;;;;;;8.52;5.18;;;;;;;-147.05;100.00;58721.66;5031896;28;20042;-67
2022/04/30 00:55:45;;;;;;;9.88;5.25;;;;;;;-147.05;100.00;58721.66;5032322;28;20038;-68
2022/04/30 00:58:18;;;;;;;11.25;5.53;;;;;;;-147.05;100.00;58721.66;5032078;28;20052;-67
2022/04/30 01:00:49;;;;;;;11.32;5.38;;;;;;;-147.05;100.00;58721.66;5032131;28;20049;-67
2022/04/30 01:03:45;;;;;;;12.75;5.57;;;;;;;-147.05;100.00;58721.66;5030893;28;20053;-66
2022/04/30 01:06:12;;;;;;;10.95;5.53;;;;;;;-147.05;100.00;58721.66;5031757;28;20042;-66
2022/04/30 01:08:40;;;;;;;11.13;5.13;;;;;;;-147.05;100.00;58721.66;5031984;28;20110;-66
2022/04/30 01:11:07;;;;;;;9.55;4.95;;;;;;;-147.05;100.00;58721.66;5031925;28;20046;-67
2022/04/30 01:13:36;;;;;;;10.45;5.20;;;;;;;-147.05;100.00;58721.66;5032421;28;20038;-67
2022/04/30 01:16:07;;;;;;;8.63;5.72;;;;;;;-147.05;100.00;58721.66;5031447;28;20042;-67
2022/04/30 01:18:36;;;;;;;9.13;5.15;;;;;;;4.82;100.00;58721.66;5031831;28;20520;-68
2022/04/30 01:21:12;;;;;;;7.85;5.78;;;;;;;-147.05;100.00;58721.66;5032137;28;20042;-67
2022/04/30 01:23:44;;;;;;;8.80;5.18;;;;;;;6.24;100.00;58721.66;5031493;28;20046;-67
2022/04/30 01:26:17;;;;;;;7.97;5.18;;;;;;;11.53;100.00;58721.66;5035305;28;20046;-66
2022/04/30 01:28:46;;;;;;;11.02;4.65;;;;;;;4.75;100.00;58721.66;5035490;28;20117;-67
2022/04/30 01:39:31;;;;;;;8.43;5.25;;;;;;;11.53;100.00;58721.66;5034566;28;20106;-68
2022/04/30 01:42:11;;;;;;;7.75;4.80;;;;;;;4.92;100.00;58721.66;5035196;28;20042;-67
2022/04/30 01:44:41;;;;;;;11.48;4.90;;;;;;;-147.05;100.00;58721.66;5035062;28;20046;-66
2022/04/30 01:47:09;;;;;;;8.85;4.82;;;;;;;11.53;100.00;58721.66;5034979;28;20033;-67
2022/04/30 01:49:37;;;;;;;11.63;4.95;;;;;;;22.11;100.00;58721.66;5034580;28;20488;-67
2022/04/30 01:52:09;;;;;;;8.80;4.75;;;;;;;11.53;100.00;58721.66;5034776;28;20049;-67
2022/04/30 01:54:36;;;;;;;10.40;5.10;;;;;;;4.55;100.00;77299.47;5035191;28;20042;-67
2022/04/30 01:57:04;;;;;;;11.90;5.30;;;;;;;4.52;100.00;58721.66;5034684;28;20520;-67
2022/04/30 01:59:32;;;;;;;9.38;5.20;;;;;;;-147.05;100.00;58721.66;5035075;28;20451;-67
2022/04/30 02:02:00;;;;;;;7.35;4.72;;;;;;;4.47;100.00;76394.50;5034823;28;20037;-67
2022/04/30 02:04:30;;;;;;;11.32;5.10;;;;;;;-147.05;100.00;58721.66;5050538;28;20050;-67
2022/04/30 02:06:59;;;;;;;10.18;5.00;;;;;;;-147.05;100.00;58721.66;5034704;28;20040;-66
2022/04/30 02:09:29;;;;;;;10.45;5.35;;;;;;;-147.05;100.00;58721.66;5034789;28;20048;-66
2022/04/30 02:12:01;;;;;;;9.02;5.20;;;;;;;-147.05;100.00;58721.66;5034333;28;20054;-67
2022/04/30 02:14:30;;;;;;;11.88;5.43;;;;;;;4.40;100.00;76382.91;5034266;28;20042;-67
2022/04/30 02:17:02;;;;;;;11.35;6.00;;;;;;;-147.05;100.00;58721.66;5035016;28;20489;-67
2022/04/30 02:20:18;;;;;;;12.82;5.90;;;;;;;-147.05;100.00;58721.66;5035176;28;20041;-67
2022/04/30 02:22:21;;;;;;;10.45;5.97;;;;;;;-147.05;100.00;58721.66;5033597;28;20045;-67
2022/04/30 02:24:49;;;;;;;13.57;6.20;;;;;;;-147.05;100.00;58721.66;5034520;28;20042;-67
2022/04/30 02:27:17;;;;;;;11.95;6.60;;;;;;;-147.05;100.00;58721.66;5034290;28;20104;-66
2022/04/30 02:29:44;;;;;;;12.40;6.60;;;;;;;-147.05;100.00;58721.66;5034421;28;20050;-67
2022/04/30 02:32:12;;;;;;;12.30;6.22;;;;;;;-147.05;100.00;58721.66;5034431;28;20117;-67
2022/04/30 02:34:39;;;;;;;12.07;6.30;;;;;;;-147.05;100.00;58721.66;5033874;28;20077;-67
2022/04/30 02:37:07;;;;;;;12.45;6.53;;;;;;;-147.05;100.00;58721.66;5032879;28;20140;-67
2022/04/30 02:39:35;;;;;;;9.88;5.80;;;;;;;-147.05;100.00;58721.66;5034228;28;20591;-67
2022/04/30 02:42:03;;;;;;;12.60;6.72;;;;;;;-147.05;100.00;58721.66;5034292;28;20045;-67
2022/04/30 02:44:31;;;;;;;11.07;6.55;;;;;;;-147.05;100.00;58721.66;5034110;28;20042;-67
2022/04/30 02:46:58;;;;;;;10.30;6.03;;;;;;;4.92;100.00;58721.66;5033744;28;20045;-66
2022/04/30 02:49:25;;;;;;;10.75;6.57;;;;;;;4.20;100.00;100612.66;5033782;28;20050;-66
2022/04/30 02:51:52;;;;;;;11.80;6.60;;;;;;;-147.05;100.00;58721.66;5034010;28;20516;-67
2022/04/30 02:54:19;;;;;;;15.32;6.88;;;;;;;-147.05;100.00;58721.66;5034216;28;20504;-66
2022/04/30 02:56:46;;;;;;;12.77;6.28;;;;;;;4.26;100.00;58721.66;5033676;28;20038;-68
2022/04/30 03:02:03;;;;;;;12.48;7.25;;;;;;;4.92;100.00;58721.66;5049187;28;20125;-67
2022/04/30 03:04:43;;;;;;;11.35;7.30;;;;;;;-147.05;100.00;58721.66;5033092;28;20042;-66
2022/04/30 03:07:11;;;;;;;12.80;7.28;;;;;;;-147.05;100.00;58721.66;5033696;28;20041;-66
2022/04/30 03:09:41;;;;;;;11.77;7.30;;;;;;;4.92;100.00;58721.66;5033973;28;20045;-67
2022/04/30 03:12:09;;;;;;;13.60;7.47;;;;;;;4.92;100.00;58721.66;5033326;28;20133;-67
2022/04/30 03:14:36;;;;;;;14.68;7.03;;;;;;;11.53;100.00;58721.66;5033864;28;20031;-67
2022/04/30 03:22:35;;;;;;;13.57;7.32;;;;;;;-147.05;100.00;58721.66;5033006;28;20056;-67
2022/04/30 03:25:03;;;;;;;16.60;7.60;;;;;;;-147.05;100.00;58721.66;5033417;28;20045;-67
2022/04/30 03:27:32;;;;;;;14.45;7.50;;;;;;;-147.05;100.00;58721.66;5033724;28;20041;-67
2022/04/30 03:29:59;;;;;;;14.60;7.43;;;;;;;-147.05;100.00;58721.66;5033385;28;20069;-67
2022/04/30 03:32:26;;;;;;;13.27;8.07;;;;;;;-147.05;100.00;58721.66;5033500;28;20066;-66
2022/04/30 03:34:53;;;;;;;14.32;7.22;;;;;;;-147.05;100.00;58721.66;5033096;28;20072;-67
2022/04/30 03:37:20;;;;;;;15.80;8.13;;;;;;;-147.05;100.00;58721.66;5033379;28;20075;-68
2022/04/30 03:39:47;;;;;;;13.90;8.50;;;;;;;-147.05;100.00;58721.66;5033154;28;20042;-67
2022/04/30 03:42:14;;;;;;;12.55;7.00;;;;;;;11.53;100.00;58721.66;5033131;28;20038;-67
2022/04/30 03:44:41;;;;;;;15.80;8.18;;;;;;;-147.05;100.00;58721.66;5032333;28;20045;-66
2022/04/30 03:47:09;;;;;;;19.00;8.27;;;;;;;-147.05;100.00;58721.66;5032770;28;20083;-66
2022/04/30 03:49:37;;;;;;;19.73;8.23;;;;;;;-147.05;100.00;58721.66;5033721;28;20073;-66
2022/04/30 03:52:09;;;;;;;15.23;8.10;;;;;;;-147.05;100.00;58721.66;5032954;28;20046;-67
2022/04/30 03:54:36;;;;;;;16.67;8.90;;;;;;;-147.05;100.00;58721.66;5032430;28;20816;-67
2022/04/30 03:57:03;;;;;;;15.45;8.88;;;;;;;-147.05;100.00;58721.66;5032628;28;20440;-67
2022/04/30 03:59:30;;;;;;;18.92;8.80;;;;;;;-147.05;100.00;58721.66;5033118;28;20037;-67
2022/04/30 04:01:59;;;;;;;18.77;9.02;;;;;;;-147.05;100.00;58721.66;5032984;28;20038;-67
2022/04/30 04:04:29;;;;;;;19.95;8.40;;;;;;;3.93;100.00;58721.66;5032612;28;20049;-67
2022/04/30 04:06:58;;;;;;;14.73;8.50;;;;;;;-147.05;100.00;58721.66;5032644;28;20042;-67
2022/04/30 04:09:29;;;;;;;15.23;7.97;;;;;;;3.90;100.00;58721.66;5033109;28;20122;-67
2022/04/30 04:11:56;;;;;;;15.07;8.82;;;;;;;3.89;100.00;58721.66;5033345;28;20042;-67
2022/04/30 04:19:55;;;;;;;15.18;8.52;;;;;;;-147.05;100.00;58721.66;5032467;28;20093;-67
2022/04/30 04:22:22;;;;;;;13.25;8.32;;;;;;;-147.05;100.00;58721.66;5032611;28;20085;-66
2022/04/30 04:27:35;;;;;;;16.50;8.57;;;;;;;-147.05;100.00;58721.66;5032519;28;20531;-67
2022/04/30 04:30:03;;;;;;;14.80;8.02;;;;;;;-147.05;100.00;58721.66;5033145;28;20089;-67
2022/04/30 04:32:30;;;;;;;14.05;9.02;;;;;;;-147.05;100.00;58721.66;5033700;28;20050;-67
2022/04/30 04:34:57;;;;;;;15.25;8.77;;;;;;;-147.05;100.00;58721.66;5032392;28;20072;-66
2022/04/30 04:37:25;;;;;;;16.88;8.85;;;;;;;-147.05;100.00;58721.66;5032907;28;20532;-67
2022/04/30 04:39:55;;;;;;;14.77;8.90;;;;;;;-147.05;100.00;58721.66;5033166;28;20042;-67
2022/04/30 04:42:22;;;;;;;16.00;8.48;;;;;;;4.50;100.00;58721.66;5032971;28;20143;-67
2022/04/30 04:44:49;;;;;;;16.23;8.73;;;;;;;191.58;100.00;58721.66;5032587;28;20041;-66
2022/04/30 04:47:17;;;;;;;18.95;8.95;;;;;;;-147.05;100.00;58721.66;5032637;28;20042;-68
2022/04/30 04:49:44;;;;;;;15.27;8.55;;;;;;;-147.05;100.00;58721.66;5032993;28;20042;-66
2022/04/30 04:52:12;;;;;;;18.20;8.63;;;;;;;-147.05;100.00;58721.66;5032637;28;20456;-67
2022/04/30 04:54:39;;;;;;;14.43;8.50;;;;;;;-147.05;100.00;58721.66;5032715;28;20500;-66
2022/04/30 04:57:06;;;;;;;17.75;8.32;;;;;;;5.68;100.00;77299.47;5032541;28;20108;-67
2022/04/30 04:59:33;;;;;;;16.70;8.30;;;;;;;11.53;100.00;58721.66;5031818;28;20050;-67
2022/04/30 05:02:02;;;;;;;17.23;8.10;;;;;;;8.88;100.00;58721.66;5032765;28;20049;-67
2022/04/30 05:04:32;;;;;;;15.85;8.40;;;;;;;-147.05;100.00;58721.66;5032818;28;20050;-67
2022/04/30 05:06:59;;;;;;;13.98;8.10;;;;;;;6.90;100.00;100612.66;5032583;28;20038;-67
2022/04/30 05:09:26;;;;;;;13.45;7.75;;;;;;;-147.05;100.00;58721.66;5032391;28;20042;-67
2022/04/30 05:11:54;;;;;;;15.55;8.02;;;;;;;-147.05;100.00;58721.66;5032339;28;20042;-67
2022/04/30 05:14:21;;;;;;;12.52;8.20;;;;;;;8.54;71.13;102696.84;5032658;28;20046;-67
2022/04/30 05:16:48;;;;;;;14.77;7.82;;;;;;;9.16;69.22;102701.59;5032711;28;20041;-68
2022/04/30 05:19:16;;;;;;;11.48;7.20;;;;;;;9.91;66.27;102698.41;5032594;28;20046;-67
2022/04/30 05:21:43;;;;;;;12.38;7.72;;;;;;;10.60;64.96;102701.09;5032876;28;20045;-67
2022/04/30 05:24:11;;;;;;;12.10;7.75;;;;;;;11.27;62.51;102691.25;5032542;28;20038;-68
2022/04/30 05:26:38;;;;;;;10.75;6.70;;;;;;;11.89;60.94;102688.31;5032243;28;20045;-67
2022/04/30 05:29:06;;;;;;;15.60;7.22;;;;;;;12.40;58.39;102695.94;5031926;28;20551;-68
2022/04/30 05:31:33;;;;;;;10.60;7.10;;;;;;;12.73;56.66;102697.38;5032175;28;20094;-68
2022/04/30 05:34:00;;;;;;;11.27;6.45;;;;;;;12.86;55.24;102691.97;5032420;28;20046;-68
2022/04/30 05:36:27;;;;;;;11.63;6.38;;;;;;;12.61;55.91;102694.00;5031622;28;20575;-67
2022/04/30 05:38:54;;;;;;;7.55;5.95;;;;;;;12.21;55.78;102692.53;5032617;28;20045;-67
2022/04/30 05:41:21;;;;;;;9.18;6.18;;;;;;;11.97;56.31;102699.72;5032394;28;20049;-68
2022/04/30 05:43:52;;;;;;;10.15;6.00;;;;;;;12.23;56.30;102696.91;5032229;28;20104;-67
2022/04/30 05:46:19;;;;;;;11.90;6.28;;;;;;;12.45;55.85;102694.09;5032353;28;20041;-67
2022/04/30 05:48:46;;;;;;;11.27;6.90;;;;;;;12.12;56.43;102698.75;5031888;28;20505;-66
2022/04/30 05:51:13;;;;;;;9.30;5.95;;;;;;;11.27;57.27;102701.81;5032153;28;20038;-68
2022/04/30 05:53:40;;;;;;;10.70;6.03;;;;;;;10.49;59.02;102706.34;5032243;28;20125;-68
2022/04/30 05:56:07;;;;;;;14.73;6.93;;;;;;;9.94;60.91;102706.28;5031999;28;20693;-68
2022/04/30 05:58:35;;;;;;;12.57;6.72;;;;;;;9.57;62.18;102705.28;5032033;28;20054;-67
2022/04/30 06:01:03;;;;;;;12.50;6.28;;;;;;;9.23;63.17;102716.56;5032589;28;20125;-67
2022/04/30 06:03:34;;;;;;;10.30;5.93;;;;;;;8.86;64.10;102721.59;5031679;28;20041;-68
2022/04/30 06:06:01;;;;;;;14.10;6.00;;;;;;;8.55;65.21;102718.75;5031923;28;20050;-67
2022/04/30 06:08:28;;;;;;;11.27;6.18;;;;;;;8.34;66.07;102725.53;5032032;28;20058;-67
2022/04/30 06:10:56;;;;;;;9.95;5.93;;;;;;;8.29;66.16;102721.97;5031974;28;20104;-68
2022/04/30 06:13:24;;;;;;;11.75;6.88;;;;;;;8.27;66.68;102728.97;5035023;28;20499;-67
2022/04/30 06:15:51;;;;;;;11.60;6.15;;;;;;;8.28;67.16;102722.84;5034943;28;20038;-67
2022/04/30 06:18:22;;;;;;;8.55;6.00;;;;;;;8.32;67.59;102722.00;5034586;28;20794;-68
2022/04/30 06:20:49;;;;;;;11.75;6.78;;;;;;;8.35;67.45;102721.16;5033415;28;20104;-67
2022/04/30 06:23:16;;;;;;;10.35;6.22;;;;;;;8.37;67.67;102722.94;5034339;28;20042;-67
2022/04/30 06:25:45;;;;;;;14.18;6.35;;;;;;;8.36;68.08;102721.19;5034433;28;20034;-66
2022/04/30 06:28:15;;;;;;;10.02;6.03;;;;;;;8.34;67.96;102722.91;5034374;28;20069;-68
2022/04/30 06:30:43;;;;;;;12.30;6.00;;;;;;;8.33;68.28;102726.41;5034371;28;20048;-67
2022/04/30 06:33:10;;;;;;;9.63;5.78;;;;;;;8.30;68.25;102721.09;5034140;28;20042;-67
2022/04/30 06:35:37;;;;;;;11.90;6.45;;;;;;;8.38;68.15;102726.44;5033812;28;20062;-67
2022/04/30 06:38:06;;;;;;;9.23;5.93;;;;;;;8.43;68.12;102730.00;5034105;28;20057;-66
2022/04/30 06:40:33;;;;;;;7.80;5.63;;;;;;;8.50;68.24;102725.69;5034483;28;20100;-68
2022/04/30 06:43:02;;;;;;;14.52;6.50;;;;;;;8.58;67.96;102723.13;5034646;28;20104;-67
2022/04/30 06:45:30;;;;;;;8.95;5.68;;;;;;;8.63;67.72;102718.81;5034041;28;20121;-68
2022/04/30 06:47:57;;;;;;;11.63;6.22;;;;;;;8.69;67.62;102722.38;5033847;28;20042;-67
2022/04/30 06:50:24;;;;;;;10.80;5.43;;;;;;;8.79;67.24;102723.31;5034170;28;20092;-68
2022/04/30 06:58:23;;;;;;;10.55;5.35;;;;;;;8.94;66.49;102713.78;5033952;28;20138;-68
2022/04/30 07:03:27;;;;;;;10.27;5.22;;;;;;;9.24;66.02;102713.06;5033514;28;20065;-67
2022/04/30 07:06:03;;;;;;;8.30;5.15;;;;;;;9.43;65.66;102713.13;5034287;28;20042;-66
2022/04/30 07:08:34;;;;;;;6.05;3.90;;;;;;;9.59;64.03;102719.34;5033804;28;20069;-67
2022/04/30 07:11:02;;;;;;;7.90;4.78;;;;;;;9.69;63.65;102712.38;5033850;28;20046;-67
2022/04/30 07:13:32;;;;;;;7.68;4.63;;;;;;;9.80;63.41;102710.66;5033862;28;20049;-67
2022/04/30 07:15:59;;;;;;;9.20;4.47;;;;;;;9.96;63.50;102708.94;5032867;28;20041;-67
2022/04/30 07:18:26;;;;;;;9.70;4.93;;;;;;;10.08;62.28;102711.56;5033701;28;20050;-68
2022/04/30 07:20:55;;;;;;;12.50;4.95;;;;;;;10.16;62.21;102705.47;5033846;28;20450;-68
2022/04/30 07:23:22;;;;;;;8.00;4.40;;;;;;;10.20;60.96;102712.47;5032944;28;20045;-67
2022/04/30 07:25:49;;;;;;;9.30;4.20;;;;;;;10.18;61.26;102711.59;5033328;28;20049;-67
2022/04/30 07:28:17;;;;;;;6.95;3.80;;;;;;;10.27;61.34;102714.25;5033945;28;20042;-68
2022/04/30 07:30:44;;;;;;;7.78;4.75;;;;;;;10.41;61.54;102709.88;5033284;28;20041;-68
2022/04/30 07:33:11;;;;;;;6.78;3.70;;;;;;;10.55;60.41;102706.38;5033592;28;20038;-68
2022/04/30 07:35:38;;;;;;;8.27;4.45;;;;;;;10.65;60.24;102705.50;5032675;28;20528;-68
2022/04/30 07:38:05;;;;;;;7.07;4.05;;;;;;;10.75;59.46;102702.84;5032757;28;20041;-67
2022/04/30 07:40:34;;;;;;;10.25;3.60;;;;;;;10.87;59.53;102694.91;5033614;28;20108;-66
2022/04/30 07:43:02;;;;;;;6.30;4.68;;;;;;;11.07;59.48;102715.09;5033008;28;20127;-67
2022/04/30 07:45:29;;;;;;;7.18;4.03;;;;;;;11.25;59.20;102703.59;5033288;28;20399;-67
2022/04/30 07:47:57;;;;;;;5.25;3.30;;;;;;;11.34;56.91;102691.25;5033476;28;20515;-68
2022/04/30 07:50:25;;;;;;;9.75;3.88;;;;;;;11.45;57.15;102692.97;5033328;28;20515;-66
2022/04/30 07:52:53;;;;;;;6.68;3.00;;;;;;;11.61;56.57;102691.13;5032856;28;20045;-67
2022/04/30 07:55:21;;;;;;;7.40;3.60;;;;;;;11.70;53.85;102690.22;5033208;28;20038;-69
2022/04/30 07:57:48;;;;;;;10.75;3.28;;;;;;;11.76;54.19;102677.81;5032997;28;20531;-66
2022/04/30 08:00:15;;;;;;;5.38;2.47;;;;;;;11.90;53.86;102679.50;5032521;28;20058;-67
2022/04/30 08:02:43;;;;;;;5.78;2.92;;;;;;;12.04;52.29;102685.63;5032975;28;20108;-67
2022/04/30 08:05:10;;;;;;;3.42;2.60;;;;;;;12.17;52.98;102680.22;5032642;28;20501;-68
2022/04/30 08:07:37;;;;;;;3.40;2.20;;;;;;;12.31;51.38;102682.78;5032841;28;20046;-66
2022/04/30 08:10:05;;;;;;;5.97;2.08;;;;;;;12.39;48.98;102673.88;5032993;28;20037;-68
2022/04/30 08:12:32;;;;;;;4.65;2.20;;;;;;;12.48;48.92;102672.94;5033146;28;20068;-67
2022/04/30 08:14:59;;;;;;;8.20;2.40;;;;;;;12.56;49.79;102678.16;5032425;28;20392;-69
2022/04/30 08:17:27;;;;;;;3.58;2.60;;;;;;;12.69;48.77;102679.78;5032765;28;20049;-67
2022/04/30 08:19:55;;;;;;;5.00;1.95;;;;;;;12.79;47.68;102684.97;5032777;28;20121;-67
2022/04/30 08:22:23;;;;;;;4.63;2.30;;;;;;;12.81;46.44;102673.50;5032857;28;20050;-67
2022/04/30 08:24:50;;;;;;;8.35;2.30;;;;;;;12.93;47.72;102680.41;5032559;28;20480;-68
2022/04/30 08:27:17;;;;;;;7.68;2.53;;;;;;;13.09;46.50;102672.28;5032592;28;20036;-68
2022/04/30 08:29:44;;;;;;;3.47;2.30;;;;;;;13.16;46.26;102674.84;5032517;28;20042;-67
2022/04/30 08:32:12;;;;;;;6.95;2.63;;;;;;;13.16;47.22;102668.69;5032433;28;20050;-68
2022/04/30 08:34:39;;;;;;;4.20;2.00;;;;;;;13.22;45.69;102668.59;5031079;28;20748;-67
2022/04/30 08:37:07;;;;;;;4.50;1.92;;;;;;;13.27;45.85;102661.50;5032303;28;20069;-67
2022/04/30 08:39:34;;;;;;;5.32;2.10;;;;;;;13.37;46.32;102662.25;5032205;28;20052;-67
2022/04/30 08:42:08;;;;;;;3.10;1.90;;;;;;;13.43;44.35;102654.22;5032015;28;20443;-68
2022/04/30 08:44:38;;;;;;;;;;;;;;;13.36;43.68;102650.78;5032583;28;20065;-67
2022/04/30 08:47:11;;;;;;;2.85;1.90;;;;;;;13.49;44.08;102653.28;5031981;28;19929;-67
2022/04/30 08:49:42;;;;;;;2.92;1.20;;;;;;;13.69;43.06;102655.66;5031161;28;20049;-67
2022/04/30 08:52:15;;;;;;;1.83;1.30;;;;;;;13.90;40.96;102659.75;5032391;28;20121;-67
2022/04/30 08:54:42;;;;;;;3.35;1.25;;;;;;;14.09;40.85;102652.41;5032555;28;20046;-68
2022/04/30 08:57:11;;;;;;;2.13;0.90;;;;;;;14.26;40.21;102653.88;5031926;28;20116;-68
2022/04/30 08:59:38;;;;;;;2.97;0.88;;;;;;;14.37;36.72;102653.72;5032118;28;20049;-67
2022/04/30 09:02:11;;;;;;;4.45;1.00;;;;;;;14.63;38.24;102647.03;5032121;28;20042;-67
2022/04/30 09:04:48;;;;;;;1.10;0.90;;;;;;;14.91;36.90;102644.78;5032206;28;20042;-68
2022/04/30 09:07:24;;;;;;;1.67;1.00;;;;;;;14.91;37.21;102650.94;5031498;28;20440;-67
2022/04/30 09:09:54;;;;;;;3.05;1.92;;;;;;;14.93;38.04;102645.63;5031899;28;20534;-67
2022/04/30 09:12:21;;;;;;;3.20;1.70;;;;;;;15.11;39.67;102636.38;5032146;28;20121;-67
2022/04/30 09:14:48;;;;;;;4.00;1.85;;;;;;;15.44;39.36;102633.91;5031935;28;20412;-67
2022/04/30 09:17:17;;;;;;;2.67;1.10;;;;;;;15.78;37.55;102634.91;5031832;28;20070;-68
2022/04/30 09:19:54;;;;;;;2.58;1.50;;;;;;;16.22;36.72;102638.31;5031969;28;20057;-69
2022/04/30 09:22:29;;;;;;;4.90;1.92;;;;;;;16.33;37.43;102639.81;5031846;28;20040;-67
2022/04/30 09:24:58;;;;;;;2.67;1.80;;;;;;;16.35;37.88;102624.69;5032176;28;20042;-68
2022/04/30 09:27:52;;;;;;;6.43;1.10;;;;;;;16.16;37.09;102630.50;5031504;28;20038;-67
2022/04/30 09:30:29;;;;;;;5.80;3.13;;;;;;;16.01;39.59;102625.53;5032120;28;20104;-67
2022/04/30 09:33:06;;;;;;;9.45;3.53;;;;;;;15.64;40.42;102637.91;5031883;28;20042;-67
2022/04/30 09:38:25;;;;;;;8.48;3.15;;;;;;;14.78;42.91;102635.28;5031936;28;20096;-68
2022/04/30 09:40:54;;;;;;;8.05;3.08;;;;;;;14.64;42.76;102632.88;5031948;28;20089;-67
2022/04/30 09:43:31;;;;;;;6.32;2.90;;;;;;;14.67;43.01;102632.84;5031665;28;20042;-68
2022/04/30 09:46:07;;;;;;;6.90;3.10;;;;;;;14.70;42.89;102628.34;5032918;28;20042;-66
2022/04/30 09:54:21;;;;;;;5.20;3.08;;;;;;;15.06;41.66;102617.03;5035210;28;20069;-67
2022/04/30 09:56:51;;;;;;;4.47;2.40;;;;;;;15.46;41.13;102610.84;5034860;28;20038;-68
2022/04/30 09:59:22;;;;;;;6.63;3.03;;;;;;;15.64;40.39;102614.88;5034729;28;20045;-67
2022/04/30 10:01:51;;;;;;;7.28;3.08;;;;;;;15.68;40.69;102613.00;5034704;28;20538;-67
2022/04/30 10:04:18;;;;;;;5.20;2.88;;;;;;;16.10;40.34;102599.59;5034868;28;20042;-67
2022/04/30 10:06:49;;;;;;;9.07;3.03;;;;;;;15.75;39.25;102611.09;5034189;28;20186;-68
2022/04/30 10:09:27;;;;;;;4.40;2.90;;;;;;;15.38;39.84;102612.81;5034949;28;20598;-68
2022/04/30 10:12:22;;;;;;;4.60;2.80;;;;;;;15.19;40.68;102610.56;5034789;28;20466;-67
2022/04/30 10:15:18;;;;;;;6.05;3.13;;;;;;;15.31;41.16;102616.53;5034801;28;20042;-68
2022/04/30 10:17:48;;;;;;;6.30;3.50;;;;;;;14.94;42.27;102609.31;5034084;28;20761;-68
2022/04/30 10:20:35;;;;;;;8.02;4.13;;;;;;;14.75;42.64;102605.25;5034558;28;20117;-67
2022/04/30 10:23:06;;;;;;;6.63;3.80;;;;;;;14.50;44.28;102603.94;5034332;28;20424;-68
2022/04/30 10:25:40;;;;;;;7.60;4.35;;;;;;;14.12;46.71;102609.03;5034003;28;20523;-67
2022/04/30 10:28:10;;;;;;;16.13;4.65;;;;;;;14.05;47.22;102615.34;5034915;28;20046;-68
2022/04/30 10:30:38;;;;;;;8.27;4.13;;;;;;;14.02;47.14;102612.72;5034306;28;20495;-67
2022/04/30 10:33:09;;;;;;;8.50;3.92;;;;;;;13.82;47.29;102616.59;5034043;28;20046;-67
2022/04/30 10:35:43;;;;;;;7.40;3.95;;;;;;;13.76;47.33;102616.69;5033833;28;20045;-68
2022/04/30 10:38:19;;;;;;;7.60;4.13;;;;;;;13.80;47.28;102613.06;5034949;28;20843;-67
2022/04/30 10:40:49;;;;;;;6.35;3.80;;;;;;;13.98;47.34;102602.19;5034811;28;20044;-67
2022/04/30 10:43:35;;;;;;;8.98;4.47;;;;;;;14.13;47.19;102602.81;5035498;28;20052;-67
2022/04/30 10:46:25;;;;;;;7.82;3.42;;;;;;;14.24;46.65;102590.25;5034759;28;20056;-68
2022/04/30 10:48:53;;;;;;;7.80;3.70;;;;;;;14.34;45.87;102587.44;5034904;28;20040;-67
2022/04/30 10:51:42;;;;;;;8.32;3.67;;;;;;;14.88;44.13;102581.09;5034498;28;20046;-68
2022/04/30 10:54:18;;;;;;;6.97;4.18;;;;;;;15.57;44.08;102573.38;5034149;28;20042;-68
2022/04/30 10:57:03;;;;;;;7.70;3.80;;;;;;;16.27;43.43;102574.31;5033202;28;20069;-67
2022/04/30 10:59:31;;;;;;;8.82;3.70;;;;;;;16.75;41.56;102570.34;5033837;28;20064;-68
2022/04/30 11:01:59;;;;;;;6.45;3.33;;;;;;;16.57;39.69;102574.41;5033638;28;20046;-68
2022/04/30 11:04:27;;;;;;;6.22;3.45;;;;;;;16.46;41.23;102561.41;5033763;28;20046;-68
2022/04/30 11:06:56;;;;;;;4.88;3.42;;;;;;;16.45;40.77;102568.50;5032814;28;20046;-68
2022/04/30 11:09:24;;;;;;;8.73;3.88;;;;;;;16.17;41.39;102570.16;5033214;28;20112;-68
2022/04/30 11:11:51;;;;;;;6.78;3.80;;;;;;;15.82;42.06;102560.34;5032982;28;20061;-67
2022/04/30 11:14:19;;;;;;;6.72;4.03;;;;;;;15.53;42.55;102561.94;5033466;28;20156;-68
2022/04/30 11:16:51;;;;;;;7.82;4.18;;;;;;;15.79;42.56;102555.13;5033584;28;20097;-67
2022/04/30 11:19:23;;;;;;;6.50;3.83;;;;;;;16.01;42.64;102549.31;5033716;28;20041;-67
2022/04/30 11:21:53;;;;;;;6.00;3.70;;;;;;;16.31;41.92;102554.72;5033827;28;20095;-68
2022/04/30 11:24:31;;;;;;;7.50;4.00;;;;;;;16.58;40.36;102549.53;5033373;28;20189;-67
2022/04/30 11:27:03;;;;;;;6.70;3.55;;;;;;;16.99;41.06;102555.47;5032532;28;20038;-68
2022/04/30 11:29:32;;;;;;;17.08;4.40;;;;;;;17.45;39.98;102545.16;5032617;28;20124;-68
2022/04/30 11:32:00;;;;;;;7.15;3.90;;;;;;;17.94;38.96;102550.66;5032495;28;20052;-68
2022/04/30 11:34:27;;;;;;;6.88;3.45;;;;;;;18.36;36.93;102538.53;5033648;28;20618;-68
2022/04/30 11:36:57;;;;;;;5.97;3.22;;;;;;;18.86;36.69;102534.91;5033378;28;20482;-68
2022/04/30 11:39:26;;;;;;;4.05;3.17;;;;;;;19.08;33.94;102536.75;5033168;28;20547;-68
2022/04/30 11:41:56;;;;;;;6.38;3.38;;;;;;;19.15;34.05;102529.38;5033368;28;20045;-68
2022/04/30 11:44:26;;;;;;;6.43;3.28;;;;;;;19.06;35.04;102517.25;5033061;28;20042;-68
2022/04/30 11:46:54;;;;;;;5.78;3.38;;;;;;;18.23;36.36;102530.09;5033323;28;20038;-69
2022/04/30 11:49:25;;;;;;;4.95;3.33;;;;;;;17.04;38.88;102526.00;5033266;28;20708;-68
2022/04/30 11:52:08;;;;;;;5.75;3.47;;;;;;;16.33;39.93;102531.56;5032689;28;20046;-67
2022/04/30 11:54:39;;;;;;;9.77;3.63;;;;;;;15.56;41.23;102537.09;5033221;28;20540;-67
2022/04/30 11:57:08;;;;;;;5.10;3.33;;;;;;;14.85;42.93;102541.38;5033251;28;20129;-68
2022/04/30 11:59:41;;;;;;;5.80;3.88;;;;;;;14.49;44.29;102536.75;5032985;28;20046;-68
2022/04/30 12:02:14;;;;;;;7.40;4.75;;;;;;;14.03;45.00;102535.84;5032795;28;20077;-67
2022/04/30 12:04:43;;;;;;;5.45;3.88;;;;;;;13.74;45.84;102542.47;5032991;28;20049;-68
2022/04/30 12:07:13;;;;;;;11.13;4.72;;;;;;;13.49;46.46;102548.19;5032352;28;20834;-68
2022/04/30 12:09:50;;;;;;;8.48;4.20;;;;;;;13.32;47.07;102537.81;5032344;28;20042;-68
2022/04/30 12:12:21;;;;;;;6.20;4.20;;;;;;;13.11;48.29;102533.72;5031614;28;20496;-66